ENZV/SVG METAR and TAF weather

Enter ICAO airport designator
Station Type Date Time Source
ENZV METAR 2019/06/18 16:50 UTC NOAA

ENZV 181650Z 18013KT 9999 FEW020TCU 16/10 Q1011 NOSIG


Station Type Date Time Source
ENZV Decoded METAR 2019/06/18 16:50 UTC NOAA

Stavanger / Sola, Norway (ENZV) 58-53N 005-38E 9M
Jun 18, 2019 - 12:50 PM EDT / 2019.06.18 1650 UTC
Wind: from the S (180 degrees) at 15 MPH (13 KT):0
Visibility: greater than 7 mile(s):0
Sky conditions: mostly clear
Weather: Towering cumulus clouds observed
Temperature: 60 F (16 C)
Dew Point: 50 F (10 C)
Relative Humidity: 67%
Pressure (altimeter): 29.85 in. Hg (1011 hPa)
ob: ENZV 181650Z 18013KT 9999 FEW020TCU 16/10 Q1011 NOSIG
cycle: 17

Station Type Date Time Source
ENZV TAF 2019/06/18 12:57 UTC NOAA

TAF ENZV 181100Z 1812/1912 18012KT 9999 SCT020
BECMG 1819/1822 VRB06KT PROB40 1822/1904 4000 BR BKN006

Example: see airport list